createdAt,value
2023-02-12T00:00:00.000Z,30.13
2023-02-12T00:15:00.000Z,33.78
2023-02-12T00:30:00.000Z,31.61
2023-02-12T00:45:00.000Z,30.24
2023-02-12T01:00:00.000Z,29.46
2023-02-12T01:15:00.000Z,28.84
2023-02-12T01:30:00.000Z,28.66
2023-02-12T01:45:00.000Z,28.04
2023-02-12T02:00:00.000Z,28.21
2023-02-12T02:15:00.000Z,28.72
2023-02-12T02:30:00.000Z,31.25
2023-02-12T02:45:00.000Z,27.66
2023-02-12T03:00:00.000Z,27.44
2023-02-12T03:15:00.000Z,27.29
2023-02-12T03:30:00.000Z,26.73
2023-02-12T03:45:00.000Z,27.98
2023-02-12T04:00:00.000Z,27.05
2023-02-12T04:15:00.000Z,26.73
2023-02-12T04:30:00.000Z,26.22
2023-02-12T04:45:00.000Z,26.8
2023-02-12T05:00:00.000Z,26.45
2023-02-12T05:15:00.000Z,28.06
2023-02-12T05:30:00.000Z,30.91
2023-02-12T05:45:00.000Z,29.72
2023-02-12T06:00:00.000Z,28.52
2023-02-12T06:15:00.000Z,29.68
2023-02-12T06:30:00.000Z,30.44
2023-02-12T06:45:00.000Z,31.52
2023-02-12T07:00:00.000Z,32.22
2023-02-12T07:15:00.000Z,33.4
2023-02-12T07:30:00.000Z,34.58
2023-02-12T07:45:00.000Z,35.82
2023-02-12T08:00:00.000Z,34.4
2023-02-12T08:15:00.000Z,35.25
2023-02-12T08:30:00.000Z,36.14
2023-02-12T08:45:00.000Z,35.92
2023-02-12T09:00:00.000Z,37.66
2023-02-12T09:15:00.000Z,38.63
2023-02-12T09:30:00.000Z,41.72
2023-02-12T09:45:00.000Z,40
2023-02-12T10:00:00.000Z,41.07
2023-02-12T10:15:00.000Z,39.92
2023-02-12T10:30:00.000Z,37.23
2023-02-12T10:45:00.000Z,37.08
2023-02-12T11:00:00.000Z,37.05
2023-02-12T11:15:00.000Z,35.39
2023-02-12T11:30:00.000Z,26.2
2023-02-12T11:45:00.000Z,22.74
2023-02-12T12:00:00.000Z,23.76
2023-02-12T12:15:00.000Z,19.54
2023-02-12T12:30:00.000Z,20.55
2023-02-12T12:45:00.000Z,22.21
2023-02-12T13:00:00.000Z,23.85
2023-02-12T13:15:00.000Z,29.81
2023-02-12T13:30:00.000Z,22.2
2023-02-12T13:45:00.000Z,18.92
2023-02-12T14:00:00.000Z,19.88
2023-02-12T14:15:00.000Z,20.39
2023-02-12T14:30:00.000Z,18.6
2023-02-12T14:45:00.000Z,27.65
2023-02-12T15:00:00.000Z,22.71
2023-02-12T15:15:00.000Z,21.46
2023-02-12T15:30:00.000Z,21.12
2023-02-12T15:45:00.000Z,21.99
2023-02-12T16:00:00.000Z,21.84
2023-02-12T16:15:00.000Z,28.38
2023-02-12T16:30:00.000Z,23.33
2023-02-12T16:45:00.000Z,21.96
2023-02-12T17:00:00.000Z,24.92
2023-02-12T17:15:00.000Z,34.52
2023-02-12T17:30:00.000Z,39.27
2023-02-12T17:45:00.000Z,40
2023-02-12T18:00:00.000Z,40.14
2023-02-12T18:15:00.000Z,40.92
2023-02-12T18:30:00.000Z,41.99
2023-02-12T18:45:00.000Z,42.15
2023-02-12T19:00:00.000Z,43.52
2023-02-12T19:15:00.000Z,52.48
2023-02-12T19:30:00.000Z,54.15
2023-02-12T19:45:00.000Z,48.79
2023-02-12T20:00:00.000Z,55.38
2023-02-12T20:15:00.000Z,47.72
2023-02-12T20:30:00.000Z,46.31
2023-02-12T20:45:00.000Z,42.79
2023-02-12T21:00:00.000Z,40.73
2023-02-12T21:15:00.000Z,39.32
2023-02-12T21:30:00.000Z,41.32
2023-02-12T21:45:00.000Z,41.35
2023-02-12T22:00:00.000Z,40.47
2023-02-12T22:15:00.000Z,40.87
2023-02-12T22:30:00.000Z,41.76
2023-02-12T22:45:00.000Z,41.73
2023-02-12T23:00:00.000Z,40.96
2023-02-12T23:15:00.000Z,41.62
2023-02-12T23:30:00.000Z,43.54
2023-02-12T23:45:00.000Z,43.22
